Home > Products > Valid Products > MTR

000
SAUS44 KSHV 271357
MTRAQV
METAR KAQV 271356Z AUTO 00000KT 10SM CLR 08/04 A3010 RMK AO2 SLP193
T00830044





000
SAUS44 KSHV 271355
MTRBKB
METAR KBKB 271354Z AUTO 00000KT 10SM CLR 08/04 A3009 RMK AO2 SLP218
T00830039





000
SAUS44 KSHV 271257
MTRAQV
METAR KAQV 271256Z AUTO 00000KT 10SM CLR 07/03 A3007 RMK AO2 SLP184
T00670033





000
SAUS44 KSHV 271255
MTRBKB
METAR KBKB 271254Z AUTO 00000KT 10SM CLR 09/03 A3006 RMK AO2 SLP210
T00890028 $





000
SAUS44 KSHV 271157
MTRAQV
METAR KAQV 271156Z AUTO 00000KT 10SM CLR 08/03 A3005 RMK AO2 SLP177
7//// T00780033 10111 20078 53002





000
SAUS44 KSHV 271155
MTRBKB
METAR KBKB 271154Z AUTO 00000KT 10SM CLR 07/03 A3005 RMK AO2 SLP205
T00670028 10089 20056 53001 $





000
SAUS44 KSHV 271057
MTRAQV
METAR KAQV 271056Z AUTO 00000KT 10SM CLR 10/03 A3004 RMK AO2 SLP174
T01000033





000
SAUS44 KSHV 271055
MTRBKB
METAR KBKB 271054Z AUTO 00000KT 10SM CLR 06/02 A3004 RMK AO2 SLP445
T00610022 $





000
SAUS44 KSHV 270957
MTRAQV
METAR KAQV 270956Z AUTO 27004KT 10SM CLR 11/03 A3004 RMK AO2 SLP173
T01060028





000
SAUS44 KSHV 270957
MTRAQV
METAR KAQV 270956Z AUTO 27004KT 10SM CLR 11/03 A3004 RMK AO2 SLP173
T01060028





000
SAUS44 KSHV 270955
MTRBKB
METAR KBKB 270954Z AUTO 00000KT 10SM CLR 06/03 A3004 RMK AO2 SLP201
T00610028 $





000
SAUS44 KSHV 270955
MTRBKB
METAR KBKB 270954Z AUTO 00000KT 10SM CLR 06/03 A3004 RMK AO2 SLP201
T00610028 $





000
SAUS44 KSHV 270857
MTRAQV
METAR KAQV 270856Z AUTO VRB03KT 10SM CLR 11/03 A3005 RMK AO2 SLP175
T01060028 58008





000
SAUS44 KSHV 270855
MTRBKB
METAR KBKB 270854Z AUTO 00000KT 10SM CLR 07/03 A3005 RMK AO2 SLP204
T00670028 58009 $





000
SAUS44 KSHV 270757
MTRAQV
METAR KAQV 270756Z AUTO VRB03KT 10SM CLR 11/03 A3006 RMK AO2 SLP180
T01110028





000
SAUS44 KSHV 270755
MTRBKB
METAR KBKB 270754Z AUTO 00000KT 10SM CLR 08/03 A3006 RMK AO2 SLP209
T00780028 $





000
SAUS44 KSHV 270657
MTRAQV
METAR KAQV 270656Z AUTO VRB04KT 10SM CLR 11/03 A3007 RMK AO2 SLP181
T01110028





000
SAUS44 KSHV 270655
MTRBKB
METAR KBKB 270654Z AUTO 00000KT 10SM CLR 08/03 A3007 RMK AO2 SLP211
T00780028 $





000
SAUS44 KSHV 270557
MTRAQV
METAR KAQV 270556Z AUTO VRB03KT 10SM CLR 11/03 A3007 RMK AO2 SLP183
T01110028 10122 20072 401890044 57003





000
SAUS44 KSHV 270555
MTRBKB
METAR KBKB 270554Z AUTO 00000KT 10SM CLR 07/03 A3007 RMK AO2 SLP457
T00720028 10122 20072 402000061 50001 $





000
SAUS44 KSHV 270457
MTRAQV
METAR KAQV 270456Z AUTO VRB03KT 10SM CLR 12/03 A3007 RMK AO2 SLP185
T01170028





000
SAUS44 KSHV 270455
MTRBKB
METAR KBKB 270454Z AUTO 00000KT 10SM CLR 08/03 A3008 RMK AO2 SLP214
T00780028 $





000
SAUS44 KSHV 270357
MTRAQV
METAR KAQV 270356Z AUTO 23004KT 10SM CLR 12/03 A3008 RMK AO2 SLP185
T01220028





000
SAUS44 KSHV 270355
MTRBKB
METAR KBKB 270354Z AUTO 00000KT 10SM CLR 07/03 A3008 RMK AO2 SLP216
T00720028 $





000
SAUS44 KSHV 270258
MTRAQV
METAR KAQV 270256Z AUTO 24004KT 10SM CLR 10/03 A3008 RMK AO2 SLP188
T01000028 53001





000
SAUS44 KSHV 270256
MTRBKB
METAR KBKB 270254Z AUTO 00000KT 10SM CLR 08/02 A3007 RMK AO2 SLP214
T00830022 50001 $





000
SAUS44 KSHV 270157
MTRAQV
METAR KAQV 270156Z AUTO 00000KT 10SM CLR 08/03 A3007 RMK AO2 SLP185
T00780033





000
SAUS44 KSHV 270155
MTRBKB
METAR KBKB 270154Z AUTO 00000KT 10SM CLR 08/03 A3008 RMK AO2 SLP215
T00830028 $





000
SAUS44 KSHV 270057
MTRAQV
METAR KAQV 270056Z AUTO 00000KT 10SM CLR 08/04 A3008 RMK AO2 SLP187
T00830039





000
SAUS44 KSHV 270055
MTRBKB
METAR KBKB 270054Z AUTO 00000KT 10SM CLR 09/03 A3008 RMK AO2 SLP216
T00940028 $





000
SAUS44 KSHV 262357
MTRAQV
METAR KAQV 262356Z AUTO 00000KT 10SM CLR 12/03 A3008 RMK AO2 SLP187
T01220028 10189 20122 56001





000
SAUS44 KSHV 262355
MTRBKB
METAR KBKB 262354Z AUTO 00000KT 10SM CLR 12/03 A3007 RMK AO2 SLP212
T01220033 10200 20122 55000





000
SAUS44 KSHV 262257
MTRAQV
METAR KAQV 262256Z AUTO 29004KT 10SM CLR 17/01 A3008 RMK AO2 SLP186
T01670006





000
SAUS44 KSHV 262255
MTRBKB
METAR KBKB 262254Z AUTO VRB03KT 10SM CLR 17/02 A3007 RMK AO2 SLP212
T01670022





000
SAUS44 KSHV 262157
MTRAQV
METAR KAQV 262156Z AUTO VRB05KT 10SM CLR 18/00 A3007 RMK AO2 SLP184
T01830000





000
SAUS44 KSHV 262157 COR
MTRBKB
METAR KBKB 262154Z AUTO VRB03KT 10SM CLR 19/00 A3006 RMK AO2 SLP208
T01940000





000
SAUS44 KSHV 262156 COR
MTRBKB
METAR KBKB 262154Z AUTO VRB03KT 10SM CLR 19/00 A3006 RMK AO2 SLP208
T01940000





000
SAUS44 KSHV 262155
MTRBKB
METAR KBKB 262154Z AUTO VRB03KT 10SM CLR 19/00 A3006 RMK AO2 SLP208
T01940000





000
SAUS44 KSHV 262057
MTRAQV
METAR KAQV 262056Z AUTO VRB05KT 10SM CLR 18/M01 A3008 RMK AO2 SLP187
T01831006 56024





000
SAUS44 KSHV 262055
MTRBKB
METAR KBKB 262054Z AUTO VRB06KT 10SM CLR 19/M02 A3007 RMK AO2 SLP211
T01941017 56024





000
SAUS44 KSHV 261957
MTRAQV
METAR KAQV 261956Z AUTO 01008KT 10SM CLR 17/00 A3009 RMK AO2 SLP189
T01720000





000
SAUS44 KSHV 261955
MTRBKB
METAR KBKB 261954Z AUTO 00000KT 10SM CLR 18/00 A3008 RMK AO2 SLP214
T01830000





000
SAUS44 KSHV 261857
MTRAQV
METAR KAQV 261856Z AUTO 34007KT 260V020 10SM CLR 16/M01 A3011 RMK
AO2 SLP197 T01611006





000
SAUS44 KSHV 261856
MTRBKB
METAR KBKB 261854Z AUTO VRB05KT 10SM CLR 17/01 A3010 RMK AO2 SLP220
T01720006





000
SAUS44 KSHV 261757
MTRAQV
METAR KAQV 261756Z AUTO VRB03KT 10SM CLR 15/01 A3015 RMK AO2 SLP211
6//// T01500011 10150 20044 58011





000
SAUS44 KSHV 261755
MTRBKB
METAR KBKB 261754Z AUTO VRB06KT 10SM CLR 16/01 A3014 RMK AO2 SLP236
T01560006 10156 20061 58013





000
SAUS44 KSHV 261658
MTRAQV
METAR KAQV 261656Z AUTO 35008KT 310V020 10SM CLR 12/01 A3018 RMK AO2
SLP221 T01220006





000
SAUS44 KSHV 261655
MTRBKB
METAR KBKB 261654Z AUTO VRB04KT 10SM CLR 14/01 A3017 RMK AO2 SLP246
T01390011





000
SAUS44 KSHV 261557
MTRAQV
METAR KAQV 261556Z AUTO VRB06KT 10SM CLR 11/01 A3019 RMK AO2 SLP224
T01060006





000
SAUS44 KSHV 261556
MTRBKB
METAR KBKB 261554Z AUTO VRB04KT 10SM CLR 12/01 A3018 RMK AO2 SLP249
T01220011





000
SAUS44 KSHV 261457
MTRAQV
METAR KAQV 261456Z AUTO 35007KT 300V010 10SM CLR 09/01 A3019 RMK AO2
SLP222 6//// T00890011 51019





000
SAUS44 KSHV 261455
MTRBKB
METAR KBKB 261454Z AUTO VRB03KT 10SM CLR 10/01 A3018 RMK AO2 SLP249
T01000006 51020





000
SAUS44 KSHV 261357
MTRAQV
METAR KAQV 261356Z AUTO VRB03KT 10SM CLR 05/00 A3017 RMK AO2 SLP218
T00500000





000
SAUS44 KSHV 261355
MTRBKB
METAR KBKB 261354Z AUTO VRB04KT 10SM CLR 07/00 A3016 RMK AO2 SLP488
T00720000





000
SAUS44 KSHV 261257
MTRAQV
METAR KAQV 261256Z AUTO 00000KT 10SM CLR 04/00 A3015 RMK AO2 SLP211
T00440000 PNO $





000
SAUS44 KSHV 261256
MTRBKB
METAR KBKB 261254Z AUTO VRB03KT 10SM CLR 07/M01 A3015 RMK AO2 SLP482
T00671006 $





000
SAUS44 KSHV 261157
MTRAQV
METAR KAQV 261156Z AUTO VRB03KT 10SM CLR 05/00 A3013 RMK AO2 SLP203
6//// 7//// T00500000 10100 20044 53009 PNO $





000
SAUS44 KSHV 261155
MTRBKB
METAR KBKB 261154Z AUTO VRB03KT 10SM CLR 08/M01 A3012 RMK AO2 SLP229
T00781006 10111 20078 53009 $





000
SAUS44 KSHV 261057
MTRAQV
METAR KAQV 261056Z AUTO VRB03KT 10SM CLR 06/M01 A3012 RMK AO2 SLP199
T00611006 PNO $





000
SAUS44 KSHV 261055
MTRBKB
METAR KBKB 261054Z AUTO 00000KT 10SM CLR 08/M01 A3010 RMK AO2 SLP221
T00831006 $





000
SAUS44 KSHV 260957
MTRAQV
METAR KAQV 260956Z AUTO VRB03KT 10SM CLR 07/M01 A3010 RMK AO2 SLP194
T00721006 PNO $





000
SAUS44 KSHV 260955
MTRBKB
METAR KBKB 260954Z AUTO 00000KT 10SM CLR 09/M01 A3009 RMK AO2 SLP216
T00891011 $





000
SAUS44 KSHV 260857
MTRAQV
METAR KAQV 260856Z AUTO 00000KT 10SM CLR 08/M01 A3010 RMK AO2 SLP192
6//// T00831011 50007 PNO $





000
SAUS44 KSHV 260855
MTRBKB
METAR KBKB 260854Z AUTO VRB03KT 10SM CLR 09/M01 A3009 RMK AO2 SLP218
T00941011 51010 $





000
SAUS44 KSHV 260757
MTRAQV
METAR KAQV 260756Z AUTO VRB03KT 10SM CLR 09/M01 A3010 RMK AO2 SLP193
T00941011 PNO $





000
SAUS44 KSHV 260755
MTRBKB
METAR KBKB 260754Z AUTO 00000KT 10SM CLR 10/M02 A3009 RMK AO2 SLP216
T01001017 $





000
SAUS44 KSHV 260657
MTRAQV
METAR KAQV 260656Z AUTO VRB04KT 10SM CLR 10/M02 A3009 RMK AO2 SLP187
T01001017 PNO $





000
SAUS44 KSHV 260656
MTRBKB
METAR KBKB 260654Z AUTO VRB03KT 10SM CLR 11/M02 A3007 RMK AO2 SLP211
T01061017 $





000
SAUS44 KSHV 260557
MTRAQV
METAR KAQV 260556Z AUTO 00000KT 10SM CLR 09/M02 A3008 RMK AO2 SLP186
6//// T00941017 10167 20094 402000022 51019 PNO $





000
SAUS44 KSHV 260556
MTRBKB
METAR KBKB 260554Z AUTO VRB04KT 10SM CLR 11/M02 A3006 RMK AO2 SLP208
T01111017 10167 20111 402220022 52018 $





000
SAUS44 KSHV 260457
MTRAQV
METAR KAQV 260456Z AUTO 00000KT 10SM CLR 11/M02 A3006 RMK AO2 SLP180
T01061022 PNO $





000
SAUS44 KSHV 260456
MTRBKB
METAR KBKB 260454Z AUTO VRB03KT 10SM CLR 13/M02 A3004 RMK AO2 SLP202
T01281022 $





000
SAUS44 KSHV 260357
MTRAQV
METAR KAQV 260356Z AUTO VRB05KT 10SM CLR 12/M02 A3004 RMK AO2 SLP174
T01171022 PNO $





000
SAUS44 KSHV 260356
MTRBKB
METAR KBKB 260354Z AUTO VRB03KT 10SM CLR 13/M02 A3003 RMK AO2 SLP198
T01281017 $





000
SAUS44 KSHV 260257
MTRAQV
METAR KAQV 260256Z AUTO 00000KT 10SM CLR 13/M02 A3002 RMK AO2 SLP167
6//// T01281022 51032 PNO $





000
SAUS44 KSHV 260256
MTRBKB
METAR KBKB 260254Z AUTO VRB03KT 10SM CLR 14/M03 A3001 RMK AO2 SLP434
T01391028 51035 $





000
SAUS44 KSHV 260158
MTRAQV
METAR KAQV 260156Z AUTO VRB03KT 10SM CLR 14/M02 A3000 RMK AO2 SLP160
T01391022 PNO $





000
SAUS44 KSHV 260156
MTRBKB
METAR KBKB 260154Z AUTO VRB04KT 10SM CLR 16/M02 A2998 RMK AO2 SLP182
T01561022 $





000
SAUS44 KSHV 260057
MTRAQV
METAR KAQV 260056Z AUTO VRB03KT 10SM CLR 16/M02 A2997 RMK AO2 SLP149
T01561022 PNO $





000
SAUS44 KSHV 260055
MTRBKB
METAR KBKB 260054Z AUTO VRB05KT 10SM CLR 16/00 A2995 RMK AO2 SLP172
T01610000 $





000
SAUS44 KSHV 252357
MTRAQV
METAR KAQV 252356Z AUTO VRB04KT 10SM CLR 17/M04 A2993 RMK AO2 SLP134
6//// T01721039 10200 20167 53018 PNO $





000
SAUS44 KSHV 252355
MTRBKB
METAR KBKB 252354Z AUTO 00000KT 10SM CLR 17/04 A2990 RMK AO2 SLP155
T01670039 10222 20167 51012 $





000
SAUS44 KSHV 252257
MTRAQV
METAR KAQV 252256Z AUTO VRB04G14KT 10SM CLR 19/01 A2990 RMK AO2
SLP126 T01890011 PNO $





000
SAUS44 KSHV 252256
MTRBKB
METAR KBKB 252254Z AUTO VRB04KT 10SM CLR 19/03 A2990 RMK AO2 SLP152
T01890033 $





000
SAUS44 KSHV 252157
MTRAQV
METAR KAQV 252156Z AUTO 26007KT 10SM CLR 19/05 A2989 RMK AO2 SLP122
T01940050 PNO $





000
SAUS44 KSHV 252155
MTRBKB
METAR KBKB 252154Z AUTO VRB04KT 10SM CLR 21/04 A2988 RMK AO2 SLP149
T02060039 $





000
SAUS44 KSHV 252057
MTRAQV
METAR KAQV 252056Z AUTO 26009G17KT 10SM CLR 19/04 A2987 RMK AO2
SLP116 6//// T01940044 55012 PNO $





000
SAUS44 KSHV 252055
MTRBKB
METAR KBKB 252054Z AUTO VRB06KT 22/04 A2987 RMK AO2 SLP143 T02170039
$





000
SAUS44 KSHV 251957
MTRAQV
METAR KAQV 251956Z AUTO 25008G17KT 10SM CLR 19/04 A2987 RMK AO2
SLP116 T01940044 PNO $





000
SAUS44 KSHV 251955
MTRBKB
METAR KBKB 251954Z AUTO VRB05KT 10SM CLR 22/05 A2986 RMK AO2 SLP141
T02170050 $





000
SAUS44 KSHV 251857
MTRAQV
METAR KAQV 251856Z AUTO VRB05KT 10SM CLR 18/04 A2989 RMK AO2 SLP123
T01780044 PNO $





000
SAUS44 KSHV 251855
MTRBKB
METAR KBKB 251854Z AUTO VRB06KT 10SM CLR 20/04 A2989 RMK AO2 SLP151
T02000044 $





000
SAUS44 KSHV 251757
MTRAQV
METAR KAQV 251756Z AUTO 24008KT 210V270 10SM CLR 17/04 A2991 RMK AO2
SLP128 6//// T01670044 10167 20044 58011 PNO $





000
SAUS44 KSHV 251756
MTRBKB
METAR KBKB 251754Z AUTO VRB06KT 10SM CLR 19/04 A2990 RMK AO2 SLP153
T01940044 10200 20022 58017 $





000
SAUS44 KSHV 251658
MTRAQV
METAR KAQV 251656Z AUTO VRB04KT 10SM CLR 15/04 A2993 RMK AO2 SLP135
T01500044 PNO $





000
SAUS44 KSHV 251655
MTRBKB
METAR KBKB 251654Z AUTO VRB05KT 10SM CLR 17/04 A2993 RMK AO2 SLP163
T01670044 $





000
SAUS44 KSHV 251557
MTRAQV
METAR KAQV 251556Z AUTO VRB06KT 10SM CLR 12/04 A2993 RMK AO2 SLP137
T01220039 PNO $





000
SAUS44 KSHV 251555
MTRBKB
METAR KBKB 251554Z AUTO VRB04KT 10SM CLR 14/04 A2994 RMK AO2 SLP170
T01390044 $





000
SAUS44 KSHV 251457
MTRAQV
METAR KAQV 251456Z AUTO VRB05KT 10SM CLR 09/03 A2994 RMK AO2 SLP140
6//// T00890033 55005 PNO $





000
SAUS44 KSHV 251455
MTRBKB
METAR KBKB 251454Z AUTO VRB03KT 10SM CLR 09/04 A2995 RMK AO2 SLP171
T00940044 56005 $





000
SAUS44 KSHV 251358
MTRAQV
METAR KAQV 251356Z AUTO 00000KT 10SM CLR 07/02 A2994 RMK AO2 SLP140
T00720022 PNO $





000
SAUS44 KSHV 251355
MTRBKB
METAR KBKB 251354Z AUTO 00000KT 10SM CLR 05/02 A2995 RMK AO2 SLP173
T00500022 $





000
SAUS44 KSHV 251257
MTRAQV
METAR KAQV 251256Z AUTO VRB03KT 10SM CLR 06/02 A2994 RMK AO2 SLP142
T00560017 PNO





000
SAUS44 KSHV 251255
MTRBKB
METAR KBKB 251254Z AUTO 00000KT 6SM BR CLR 03/01 A2995 RMK AO2
SLP172 T00280006 $





000
SAUS44 KSHV 251158
MTRAQV
METAR KAQV 251156Z AUTO 20004KT 10SM CLR 04/02 A2996 RMK AO2 SLP145
6//// 7//// T00440022 10061 20022 56014 PNO





000
SAUS44 KSHV 251156
MTRBKB
METAR KBKB 251154Z AUTO 00000KT 5SM BR CLR 03/01 A2996 RMK AO2
SLP176 T00280006 10067 20022 58012 $





000
SAUS44 KSHV 251057
MTRAQV
METAR KAQV 251056Z AUTO VRB03KT 10SM CLR 05/02 A2997 RMK AO2 SLP151
T00500022 PNO





000
SAUS44 KSHV 251055
MTRBKB
METAR KBKB 251054Z AUTO 00000KT 4SM BR CLR 03/01 A2998 RMK AO2
SLP182 T00330011 $





000
SAUS44 KSHV 250957
MTRAQV
METAR KAQV 250956Z AUTO 00000KT 10SM CLR 03/02 A2998 RMK AO2 SLP153
T00280017 PNO





000
SAUS44 KSHV 250955
MTRBKB
METAR KBKB 250954Z AUTO 00000KT 4SM BR CLR 03/01 A2999 RMK AO2
SLP185 T00330011 $





000
SAUS44 KSHV 250857
MTRAQV
METAR KAQV 250856Z AUTO 00000KT 10SM CLR 03/02 A3000 RMK AO2 SLP159
6//// T00280017 56010 PNO





000
SAUS44 KSHV 250855
MTRBKB
METAR KBKB 250854Z AUTO 00000KT 4SM BR CLR 04/02 A3000 RMK AO2
SLP187 T00440022 56010 $





000
SAUS44 KSHV 250757
MTRAQV
METAR KAQV 250756Z AUTO 00000KT 10SM CLR 04/02 A3000 RMK AO2 SLP161
T00390022 PNO





000
SAUS44 KSHV 250755
MTRBKB
METAR KBKB 250754Z AUTO 00000KT 10SM CLR 05/03 A3000 RMK AO2 SLP188
T00500028 $





000
SAUS44 KSHV 250658
MTRAQV
METAR KAQV 250656Z AUTO VRB04KT 10SM CLR 06/03 A3000 RMK AO2 SLP159
T00560033 PNO





000
SAUS44 KSHV 250655
MTRBKB
METAR KBKB 250654Z AUTO 00000KT 10SM CLR 06/03 A3002 RMK AO2 SLP195
T00560033 $





000
SAUS44 KSHV 250557
MTRAQV
METAR KAQV 250556Z AUTO 00000KT 10SM CLR 07/03 A3003 RMK AO2 SLP169
6//// T00670028 10094 20044 401611006 51001 PNO





000
SAUS44 KSHV 250555
MTRBKB
METAR KBKB 250554Z AUTO VRB03KT 10SM CLR 06/03 A3003 RMK AO2 SLP198
T00610033 10100 20039 401720000 50001 $





000
SAUS44 KSHV 250458
MTRAQV
METAR KAQV 250456Z AUTO 25004KT 10SM CLR 09/03 A3003 RMK AO2 SLP168
T00890028 PNO





000
SAUS44 KSHV 250456
MTRBKB
METAR KBKB 250454Z AUTO 00000KT 10SM CLR 04/02 A3003 RMK AO2 SLP200
T00390022 $





000
SAUS44 KSHV 250357
MTRAQV
METAR KAQV 250356Z AUTO 24004KT 10SM CLR 07/03 A3003 RMK AO2 SLP171
T00720033 PNO





000
SAUS44 KSHV 250355
MTRBKB
METAR KBKB 250354Z AUTO 00000KT 10SM CLR 04/02 A3003 RMK AO2 SLP200
T00440022 $





000
SAUS44 KSHV 250257
MTRAQV
METAR KAQV 250256Z AUTO 00000KT 10SM CLR 05/03 A3002 RMK AO2 SLP169
6//// T00500033 58006 PNO





000
SAUS44 KSHV 250255
MTRBKB
METAR KBKB 250254Z AUTO 00000KT 10SM CLR 06/03 A3003 RMK AO2 SLP199
T00560033 58003 $





000
SAUS44 KSHV 250157
MTRAQV
METAR KAQV 250156Z AUTO 00000KT 10SM CLR 06/03 A3004 RMK AO2 SLP175
T00560033 PNO





000
SAUS44 KSHV 250157
MTRAQV
METAR KAQV 250156Z AUTO 00000KT 10SM CLR 06/03 A3004 RMK AO2 SLP175
T00560033 PNO





000
SAUS44 KSHV 250155
MTRBKB
METAR KBKB 250154Z AUTO 00000KT 10SM CLR 07/03 A3004 RMK AO2 SLP205
T00670033 $





000
SAUS44 KSHV 250155
MTRBKB
METAR KBKB 250154Z AUTO 00000KT 10SM CLR 07/03 A3004 RMK AO2 SLP205
T00670033 $





000
SAUS44 KSHV 250057
MTRAQV
METAR KAQV 250056Z AUTO 00000KT 10SM CLR 07/04 A3004 RMK AO2 SLP175
T00670039 PNO





000
SAUS44 KSHV 250055
MTRBKB
METAR KBKB 250054Z AUTO 00000KT 10SM CLR 08/04 A3005 RMK AO2 SLP206
T00780039 $





000
SAUS44 KSHV 242357
MTRAQV
METAR KAQV 242356Z AUTO 00000KT 10SM CLR 09/03 A3004 RMK AO2 SLP175
6//// T00940033 10161 20094 55006 PNO





000
SAUS44 KSHV 242355
MTRBKB
METAR KBKB 242354Z AUTO 00000KT 10SM CLR 10/04 A3003 RMK AO2 SLP202
T01000044 10172 20100 56008 $





000
SAUS44 KSHV 242257
MTRAQV
METAR KAQV 242256Z AUTO VRB03KT 10SM CLR 14/01 A3004 RMK AO2 SLP173
T01390006 PNO





000
SAUS44 KSHV 242256
MTRBKB
METAR KBKB 242254Z AUTO 00000KT 10SM CLR 14/03 A3004 RMK AO2 SLP202
T01440033





000
SAUS44 KSHV 242157
MTRAQV
METAR KAQV 242156Z AUTO VRB05KT 10SM CLR 16/00 A3005 RMK AO2 SLP178
T01560000 PNO





000
SAUS44 KSHV 242156
MTRBKB
METAR KBKB 242154Z AUTO VRB04KT 10SM CLR 17/02 A3005 RMK AO2 SLP205
T01670017





000
SAUS44 KSHV 242057
MTRAQV
METAR KAQV 242056Z AUTO VRB06KT 10SM CLR 16/01 A3006 RMK AO2 SLP180
6//// T01560006 56029 PNO





000
SAUS44 KSHV 242055
MTRBKB
METAR KBKB 242054Z AUTO VRB04KT 10SM CLR 17/02 A3006 RMK AO2 SLP209
T01670017 56030





000
SAUS44 KSHV 241957
MTRAQV
METAR KAQV 241956Z AUTO VRB06KT 10SM CLR 15/01 A3007 RMK AO2 SLP184
T01500006 PNO





000
SAUS44 KSHV 241955
MTRBKB
METAR KBKB 241954Z AUTO 00000KT 10SM CLR 16/02 A3007 RMK AO2 SLP211
T01560017





000
SAUS44 KSHV 241857
MTRAQV
METAR KAQV 241856Z AUTO VRB06KT 10SM CLR 13/02 A3010 RMK AO2 PRESFR
SLP193 T01330017 PNO





000
SAUS44 KSHV 241855
MTRBKB
METAR KBKB 241854Z AUTO VRB05KT 10SM CLR 15/02 A3010 RMK AO2 SLP224
T01500017





000
SAUS44 KSHV 241757
MTRAQV
METAR KAQV 241756Z AUTO VRB05KT 10SM CLR 12/03 A3015 RMK AO2 SLP210
6//// T01220033 10122 21006 58006 PNO





000
SAUS44 KSHV 241755
MTRBKB
METAR KBKB 241754Z AUTO VRB05KT 10SM CLR 13/02 A3015 RMK AO2 SLP239
T01330022 10139 20000 58007





000
SAUS44 KSHV 241657
MTRAQV
METAR KAQV 241656Z AUTO 23004KT 10SM CLR 11/04 A3017 RMK AO2 SLP219
T01110039 PNO





000
SAUS44 KSHV 241656
MTRBKB
METAR KBKB 241654Z AUTO VRB03KT 10SM CLR 12/04 A3018 RMK AO2 SLP249
T01170039





000
SAUS44 KSHV 241557
MTRAQV
METAR KAQV 241556Z AUTO VRB04KT 10SM CLR 08/03 A3017 RMK AO2 SLP220
T00830028 PNO





000
SAUS44 KSHV 241555
MTRBKB
METAR KBKB 241554Z AUTO VRB05KT 10SM CLR 09/04 A3018 RMK AO2 SLP251
T00890039





000
SAUS44 KSHV 241458
MTRAQV
METAR KAQV 241456Z AUTO VRB03KT 10SM CLR 06/02 A3017 RMK AO2 SLP217
6//// T00610022 53005 PNO





000
SAUS44 KSHV 241456 COR
MTRBKB
METAR KBKB 241454Z AUTO 00000KT 10SM CLR 06/03 A3017 RMK AO2 SLP248
T00560028 53007





    US Dept of Commerce
    National Oceanic and Atmospheric Administration
    National Weather Service
    1325 East West Highway
    Silver Spring, MD 20910
    Page Author: NWS Internet Services Team
Disclaimer
Information Quality
Credits
Glossary
Privacy Policy
Freedom of Information Act (FOIA)
About Us
Career Opportunities